KGSB/GSB METAR and TAF weather

Enter ICAO airport designator
Station Type Date Time Source
KGSB METAR 2019/12/06 01:56 UTC NOAA

KGSB 060156Z AUTO 00000KT 10SM CLR 03/M02 A3017 RMK AO2 SLP220 T00311018 $


Station Type Date Time Source
KGSB Decoded METAR 2019/12/06 01:56 UTC NOAA

Seymour-Johnson Air Force Base, NC, United States (KGSB) 35-20N 077-58W
Dec 05, 2019 - 08:56 PM EST / 2019.12.06 0156 UTC
Wind: Calm:0
Visibility: 10 mile(s):0
Sky conditions: clear
Temperature: 37.6 F (3.1 C)
Dew Point: 28.8 F (-1.8 C)
Relative Humidity: 70%
Pressure (altimeter): 30.17 in. Hg (1021 hPa)
ob: KGSB 060156Z AUTO 00000KT 10SM CLR 03/M02 A3017 RMK AO2 SLP220 T00311018
cycle: 2

Station Type Date Time Source
KGSB TAF 2019/12/05 21:09 UTC NOAA

TAF TAF KGSB 052100Z 0521/0703 29012KT 9999 SKC QNH3003INS
BECMG 0522/0523 VRB03KT 9999 SKC QNH3012INS
BECMG 0613/0614 19007KT 9999 BKN140 QNH3013INS
BECMG 0622/0623 30009KT 8000 -SHRA BKN015 WS020/25030KT QNH3014INS TX16/0620Z TN01/0610Z

Example: see airport list